Celeryville, Ohio
Current Conditions -  °F | °C
As of 2:52 PM on Friday 19 Dec 2014 (Local Time) from KMFD Reporting Station
Overcast Overcast  
Wind Chill: 22°   Ceiling: 1300
Heat Index: 28°   Visibility: 9mi
Dew Point: 23°   Wind: 6mph
Humidity: 81%   Direction: 330°NNW
Pressure: 30.22"   Gusts: NA
Location:  41.0768°N, 82.7214°W
Report Text: KMFD 191952Z 33005KT 9SM OVC013 M02/M05 A3022 RMK AO2 SLP248 T10221050
Loading
Personal Weather Stations






























Interactive Weather Map New forecast layout! Learn more

10-Day Weather Forecast

Advertisements
Track Severe Weather on mobile